sensor_id;sensor_type;location;lat;lon;timestamp;temperature;humidity
26947;DHT22;14501;52.282;10.560;2022-07-11T00:01:36;11.30;99.90
26947;DHT22;14501;52.282;10.560;2022-07-11T00:04:01;11.30;99.90
26947;DHT22;14501;52.282;10.560;2022-07-11T00:06:27;11.20;99.90
26947;DHT22;14501;52.282;10.560;2022-07-11T00:08:53;11.20;99.90
26947;DHT22;14501;52.282;10.560;2022-07-11T00:11:19;11.10;99.90
26947;DHT22;14501;52.282;10.560;2022-07-11T00:13:44;11.20;99.90
26947;DHT22;14501;52.282;10.560;2022-07-11T00:16:10;11.10;99.90
26947;DHT22;14501;52.282;10.560;2022-07-11T00:18:35;11.10;99.90
26947;DHT22;14501;52.282;10.560;2022-07-11T00:21:01;11.10;99.90
26947;DHT22;14501;52.282;10.560;2022-07-11T00:23:27;11.10;99.90
26947;DHT22;14501;52.282;10.560;2022-07-11T00:25:53;11.10;99.90
26947;DHT22;14501;52.282;10.560;2022-07-11T00:28:18;11.00;99.90
26947;DHT22;14501;52.282;10.560;2022-07-11T00:30:44;11.00;99.90
26947;DHT22;14501;52.282;10.560;2022-07-11T00:33:10;11.00;99.90
26947;DHT22;14501;52.282;10.560;2022-07-11T00:35:36;11.00;99.90
26947;DHT22;14501;52.282;10.560;2022-07-11T00:38:02;11.20;99.90
26947;DHT22;14501;52.282;10.560;2022-07-11T00:40:28;11.20;99.90
26947;DHT22;14501;52.282;10.560;2022-07-11T00:42:53;11.40;99.90
26947;DHT22;14501;52.282;10.560;2022-07-11T00:45:19;11.50;99.90
26947;DHT22;14501;52.282;10.560;2022-07-11T00:50:11;11.80;99.90
26947;DHT22;14501;52.282;10.560;2022-07-11T00:52:37;11.90;99.90
26947;DHT22;14501;52.282;10.560;2022-07-11T00:55:05;12.00;99.90
26947;DHT22;14501;52.282;10.560;2022-07-11T00:57:32;12.10;99.90
26947;DHT22;14501;52.282;10.560;2022-07-11T00:59:59;12.20;99.90
26947;DHT22;14501;52.282;10.560;2022-07-11T01:02:25;12.20;99.90
26947;DHT22;14501;52.282;10.560;2022-07-11T01:04:50;12.30;99.90
26947;DHT22;14501;52.282;10.560;2022-07-11T01:07:16;12.40;99.90
26947;DHT22;14501;52.282;10.560;2022-07-11T01:09:42;12.50;99.90
26947;DHT22;14501;52.282;10.560;2022-07-11T01:12:08;12.50;99.90
26947;DHT22;14501;52.282;10.560;2022-07-11T01:14:34;12.50;99.90
26947;DHT22;14501;52.282;10.560;2022-07-11T01:17:00;12.40;99.90
26947;DHT22;14501;52.282;10.560;2022-07-11T01:19:26;12.40;99.90
26947;DHT22;14501;52.282;10.560;2022-07-11T01:21:55;12.40;99.90
26947;DHT22;14501;52.282;10.560;2022-07-11T01:24:22;12.40;99.90
26947;DHT22;14501;52.282;10.560;2022-07-11T01:26:48;12.40;99.90
26947;DHT22;14501;52.282;10.560;2022-07-11T01:29:15;12.40;99.90
26947;DHT22;14501;52.282;10.560;2022-07-11T01:31:42;12.40;99.90
26947;DHT22;14501;52.282;10.560;2022-07-11T01:34:08;12.40;99.90
26947;DHT22;14501;52.282;10.560;2022-07-11T01:36:34;12.30;99.90
26947;DHT22;14501;52.282;10.560;2022-07-11T01:38:59;12.30;99.90
26947;DHT22;14501;52.282;10.560;2022-07-11T01:41:25;12.30;99.90
26947;DHT22;14501;52.282;10.560;2022-07-11T01:43:51;12.40;99.90
26947;DHT22;14501;52.282;10.560;2022-07-11T01:46:18;12.40;99.90
26947;DHT22;14501;52.282;10.560;2022-07-11T01:48:44;12.40;99.90
26947;DHT22;14501;52.282;10.560;2022-07-11T01:51:10;12.30;99.90
26947;DHT22;14501;52.282;10.560;2022-07-11T01:53:36;12.30;99.90
26947;DHT22;14501;52.282;10.560;2022-07-11T01:56:02;12.30;99.90
26947;DHT22;14501;52.282;10.560;2022-07-11T01:58:27;12.30;99.90
26947;DHT22;14501;52.282;10.560;2022-07-11T02:00:56;12.30;99.90
26947;DHT22;14501;52.282;10.560;2022-07-11T02:03:22;12.40;99.90
26947;DHT22;14501;52.282;10.560;2022-07-11T02:05:48;12.40;99.90
26947;DHT22;14501;52.282;10.560;2022-07-11T02:08:14;12.60;99.90
26947;DHT22;14501;52.282;10.560;2022-07-11T02:10:48;12.60;99.90
26947;DHT22;14501;52.282;10.560;2022-07-11T02:13:16;12.80;99.90
26947;DHT22;14501;52.282;10.560;2022-07-11T02:15:44;12.90;99.90
26947;DHT22;14501;52.282;10.560;2022-07-11T02:18:10;13.00;99.90
26947;DHT22;14501;52.282;10.560;2022-07-11T02:20:40;13.00;99.90
26947;DHT22;14501;52.282;10.560;2022-07-11T02:23:08;13.10;99.90
26947;DHT22;14501;52.282;10.560;2022-07-11T02:25:33;13.10;99.90
26947;DHT22;14501;52.282;10.560;2022-07-11T02:28:06;13.10;99.90
26947;DHT22;14501;52.282;10.560;2022-07-11T02:30:36;13.10;99.90
26947;DHT22;14501;52.282;10.560;2022-07-11T02:33:02;13.10;99.90
26947;DHT22;14501;52.282;10.560;2022-07-11T02:35:28;13.10;99.90
26947;DHT22;14501;52.282;10.560;2022-07-11T02:37:54;13.00;99.90
26947;DHT22;14501;52.282;10.560;2022-07-11T02:40:19;13.00;99.90
26947;DHT22;14501;52.282;10.560;2022-07-11T02:42:45;13.00;99.90
26947;DHT22;14501;52.282;10.560;2022-07-11T02:45:11;13.00;99.90
26947;DHT22;14501;52.282;10.560;2022-07-11T02:47:38;13.00;99.90
26947;DHT22;14501;52.282;10.560;2022-07-11T02:50:09;13.10;99.90
26947;DHT22;14501;52.282;10.560;2022-07-11T02:52:35;13.10;99.90
26947;DHT22;14501;52.282;10.560;2022-07-11T02:55:01;13.00;99.90
26947;DHT22;14501;52.282;10.560;2022-07-11T02:57:27;13.00;99.90
26947;DHT22;14501;52.282;10.560;2022-07-11T02:59:53;13.00;99.90
26947;DHT22;14501;52.282;10.560;2022-07-11T03:02:18;13.00;99.90
26947;DHT22;14501;52.282;10.560;2022-07-11T03:04:45;13.00;99.90
26947;DHT22;14501;52.282;10.560;2022-07-11T03:07:11;13.00;99.90
26947;DHT22;14501;52.282;10.560;2022-07-11T03:09:36;13.00;99.90
26947;DHT22;14501;52.282;10.560;2022-07-11T03:12:03;13.00;99.90
26947;DHT22;14501;52.282;10.560;2022-07-11T03:14:29;13.10;99.90
26947;DHT22;14501;52.282;10.560;2022-07-11T03:16:55;13.20;99.90
26947;DHT22;14501;52.282;10.560;2022-07-11T03:19:21;13.20;99.90
26947;DHT22;14501;52.282;10.560;2022-07-11T03:21:46;13.30;99.90
26947;DHT22;14501;52.282;10.560;2022-07-11T03:24:12;13.30;99.90
26947;DHT22;14501;52.282;10.560;2022-07-11T03:26:38;13.30;99.90
26947;DHT22;14501;52.282;10.560;2022-07-11T03:29:04;13.30;99.90
26947;DHT22;14501;52.282;10.560;2022-07-11T03:31:30;13.40;99.90
26947;DHT22;14501;52.282;10.560;2022-07-11T03:33:55;13.40;99.90
26947;DHT22;14501;52.282;10.560;2022-07-11T03:36:21;13.40;99.90
26947;DHT22;14501;52.282;10.560;2022-07-11T03:38:47;13.50;99.90
26947;DHT22;14501;52.282;10.560;2022-07-11T03:41:13;13.50;99.90
26947;DHT22;14501;52.282;10.560;2022-07-11T03:43:38;13.60;99.90
26947;DHT22;14501;52.282;10.560;2022-07-11T03:46:04;13.60;99.90
26947;DHT22;14501;52.282;10.560;2022-07-11T03:48:32;13.70;99.90
26947;DHT22;14501;52.282;10.560;2022-07-11T03:50:58;13.80;99.90
26947;DHT22;14501;52.282;10.560;2022-07-11T03:53:23;13.80;99.90
26947;DHT22;14501;52.282;10.560;2022-07-11T03:55:49;13.80;99.90
26947;DHT22;14501;52.282;10.560;2022-07-11T03:58:15;13.80;99.90
26947;DHT22;14501;52.282;10.560;2022-07-11T04:00:40;13.80;99.90
26947;DHT22;14501;52.282;10.560;2022-07-11T04:03:06;13.80;99.90
26947;DHT22;14501;52.282;10.560;2022-07-11T04:05:32;13.80;99.90
26947;DHT22;14501;52.282;10.560;2022-07-11T04:07:58;13.90;99.90
26947;DHT22;14501;52.282;10.560;2022-07-11T04:10:24;13.90;99.90
26947;DHT22;14501;52.282;10.560;2022-07-11T04:12:50;14.00;99.90
26947;DHT22;14501;52.282;10.560;2022-07-11T04:15:15;14.20;99.90
26947;DHT22;14501;52.282;10.560;2022-07-11T04:17:41;14.20;99.90
26947;DHT22;14501;52.282;10.560;2022-07-11T04:20:07;14.30;99.90
26947;DHT22;14501;52.282;10.560;2022-07-11T04:22:33;14.40;99.90
26947;DHT22;14501;52.282;10.560;2022-07-11T04:24:58;14.50;99.90
26947;DHT22;14501;52.282;10.560;2022-07-11T04:27:24;14.60;99.90
26947;DHT22;14501;52.282;10.560;2022-07-11T04:29:50;14.70;99.90
26947;DHT22;14501;52.282;10.560;2022-07-11T04:32:16;14.70;99.90
26947;DHT22;14501;52.282;10.560;2022-07-11T04:34:42;14.80;99.90
26947;DHT22;14501;52.282;10.560;2022-07-11T04:37:08;14.90;99.90
26947;DHT22;14501;52.282;10.560;2022-07-11T04:39:34;14.90;99.90
26947;DHT22;14501;52.282;10.560;2022-07-11T04:41:59;14.90;99.90
26947;DHT22;14501;52.282;10.560;2022-07-11T04:44:27;15.00;99.90
26947;DHT22;14501;52.282;10.560;2022-07-11T04:46:53;15.00;99.90
26947;DHT22;14501;52.282;10.560;2022-07-11T04:49:18;15.30;99.90
26947;DHT22;14501;52.282;10.560;2022-07-11T04:51:44;15.30;99.90
26947;DHT22;14501;52.282;10.560;2022-07-11T04:54:10;15.40;99.90
26947;DHT22;14501;52.282;10.560;2022-07-11T04:56:36;15.40;99.90
26947;DHT22;14501;52.282;10.560;2022-07-11T04:59:03;15.40;99.90
26947;DHT22;14501;52.282;10.560;2022-07-11T05:01:29;15.40;99.90
26947;DHT22;14501;52.282;10.560;2022-07-11T05:03:55;15.50;99.90
26947;DHT22;14501;52.282;10.560;2022-07-11T05:06:21;15.50;99.90
26947;DHT22;14501;52.282;10.560;2022-07-11T05:08:47;15.70;99.90
26947;DHT22;14501;52.282;10.560;2022-07-11T05:11:13;15.60;99.90
26947;DHT22;14501;52.282;10.560;2022-07-11T05:13:39;15.80;99.90
26947;DHT22;14501;52.282;10.560;2022-07-11T05:16:05;15.90;99.90
26947;DHT22;14501;52.282;10.560;2022-07-11T05:18:31;16.20;99.90
26947;DHT22;14501;52.282;10.560;2022-07-11T05:20:57;16.20;99.90
26947;DHT22;14501;52.282;10.560;2022-07-11T05:23:23;16.30;99.90
26947;DHT22;14501;52.282;10.560;2022-07-11T05:25:49;16.50;99.90
26947;DHT22;14501;52.282;10.560;2022-07-11T05:28:14;17.10;99.90
26947;DHT22;14501;52.282;10.560;2022-07-11T05:30:40;17.10;99.90
26947;DHT22;14501;52.282;10.560;2022-07-11T05:33:06;17.60;99.90
26947;DHT22;14501;52.282;10.560;2022-07-11T05:38:00;18.00;99.90
26947;DHT22;14501;52.282;10.560;2022-07-11T05:40:25;18.00;99.90
26947;DHT22;14501;52.282;10.560;2022-07-11T05:42:51;17.80;99.90
26947;DHT22;14501;52.282;10.560;2022-07-11T05:45:16;17.90;99.90
26947;DHT22;14501;52.282;10.560;2022-07-11T05:47:42;17.90;99.90
26947;DHT22;14501;52.282;10.560;2022-07-11T05:50:08;17.70;99.90
26947;DHT22;14501;52.282;10.560;2022-07-11T05:52:34;17.60;99.90
26947;DHT22;14501;52.282;10.560;2022-07-11T05:55:00;17.40;99.90
26947;DHT22;14501;52.282;10.560;2022-07-11T05:57:26;18.20;99.90
26947;DHT22;14501;52.282;10.560;2022-07-11T05:59:51;20.90;99.90
26947;DHT22;14501;52.282;10.560;2022-07-11T06:02:17;23.60;99.90
26947;DHT22;14501;52.282;10.560;2022-07-11T06:04:44;26.20;99.90
26947;DHT22;14501;52.282;10.560;2022-07-11T06:07:11;29.10;99.90
26947;DHT22;14501;52.282;10.560;2022-07-11T06:09:36;30.80;98.30
26947;DHT22;14501;52.282;10.560;2022-07-11T06:12:03;31.90;94.20
26947;DHT22;14501;52.282;10.560;2022-07-11T06:14:29;32.10;91.80
26947;DHT22;14501;52.282;10.560;2022-07-11T06:16:54;31.30;91.60
26947;DHT22;14501;52.282;10.560;2022-07-11T06:19:20;30.80;92.80
26947;DHT22;14501;52.282;10.560;2022-07-11T06:21:46;31.60;91.00
26947;DHT22;14501;52.282;10.560;2022-07-11T06:24:12;32.80;89.00
26947;DHT22;14501;52.282;10.560;2022-07-11T06:26:38;34.30;83.40
26947;DHT22;14501;52.282;10.560;2022-07-11T06:29:03;35.50;81.60
26947;DHT22;14501;52.282;10.560;2022-07-11T06:31:29;36.30;78.50
26947;DHT22;14501;52.282;10.560;2022-07-11T06:33:55;37.20;72.90
26947;DHT22;14501;52.282;10.560;2022-07-11T06:36:21;37.60;73.20
26947;DHT22;14501;52.282;10.560;2022-07-11T06:38:51;38.10;69.10
26947;DHT22;14501;52.282;10.560;2022-07-11T06:41:17;38.40;68.70
26947;DHT22;14501;52.282;10.560;2022-07-11T06:43:43;39.40;65.70
26947;DHT22;14501;52.282;10.560;2022-07-11T06:46:09;40.30;64.20
26947;DHT22;14501;52.282;10.560;2022-07-11T06:48:35;40.00;62.30
26947;DHT22;14501;52.282;10.560;2022-07-11T06:51:01;40.90;59.40
26947;DHT22;14501;52.282;10.560;2022-07-11T06:53:27;40.80;59.50
26947;DHT22;14501;52.282;10.560;2022-07-11T06:55:52;40.50;59.20
26947;DHT22;14501;52.282;10.560;2022-07-11T06:58:18;39.80;58.40
26947;DHT22;14501;52.282;10.560;2022-07-11T07:01:04;39.80;59.20
26947;DHT22;14501;52.282;10.560;2022-07-11T07:03:31;39.30;58.50
26947;DHT22;14501;52.282;10.560;2022-07-11T07:05:58;40.60;58.00
26947;DHT22;14501;52.282;10.560;2022-07-11T07:08:28;39.80;57.70
26947;DHT22;14501;52.282;10.560;2022-07-11T07:10:55;37.90;59.50
26947;DHT22;14501;52.282;10.560;2022-07-11T07:13:21;36.50;63.30
26947;DHT22;14501;52.282;10.560;2022-07-11T07:15:51;36.80;61.50
26947;DHT22;14501;52.282;10.560;2022-07-11T07:18:16;37.60;59.80
26947;DHT22;14501;52.282;10.560;2022-07-11T07:20:42;38.40;61.00
26947;DHT22;14501;52.282;10.560;2022-07-11T07:23:08;38.90;60.10
26947;DHT22;14501;52.282;10.560;2022-07-11T07:25:34;39.10;60.00
26947;DHT22;14501;52.282;10.560;2022-07-11T07:28:00;38.50;55.60
26947;DHT22;14501;52.282;10.560;2022-07-11T07:30:26;38.00;56.90
26947;DHT22;14501;52.282;10.560;2022-07-11T07:32:52;36.80;60.20
26947;DHT22;14501;52.282;10.560;2022-07-11T07:35:17;34.70;62.30
26947;DHT22;14501;52.282;10.560;2022-07-11T07:37:43;31.50;68.50
26947;DHT22;14501;52.282;10.560;2022-07-11T07:40:09;29.40;74.20
26947;DHT22;14501;52.282;10.560;2022-07-11T07:42:34;27.60;79.50
26947;DHT22;14501;52.282;10.560;2022-07-11T07:45:00;27.20;81.80
26947;DHT22;14501;52.282;10.560;2022-07-11T07:47:26;29.10;79.40
26947;DHT22;14501;52.282;10.560;2022-07-11T07:49:53;29.70;75.80
26947;DHT22;14501;52.282;10.560;2022-07-11T07:52:19;30.70;75.60
26947;DHT22;14501;52.282;10.560;2022-07-11T07:54:45;33.00;72.30
26947;DHT22;14501;52.282;10.560;2022-07-11T07:57:12;35.70;67.60
26947;DHT22;14501;52.282;10.560;2022-07-11T07:59:37;38.00;62.50
26947;DHT22;14501;52.282;10.560;2022-07-11T08:02:03;37.50;59.50
26947;DHT22;14501;52.282;10.560;2022-07-11T08:04:29;37.30;60.10
26947;DHT22;14501;52.282;10.560;2022-07-11T08:06:55;36.30;61.10
26947;DHT22;14501;52.282;10.560;2022-07-11T08:09:22;34.50;64.80
26947;DHT22;14501;52.282;10.560;2022-07-11T08:11:48;33.60;65.40
26947;DHT22;14501;52.282;10.560;2022-07-11T08:14:14;33.30;65.80
26947;DHT22;14501;52.282;10.560;2022-07-11T08:16:40;34.60;65.60
26947;DHT22;14501;52.282;10.560;2022-07-11T08:19:06;35.70;63.80
26947;DHT22;14501;52.282;10.560;2022-07-11T08:21:33;35.60;62.70
26947;DHT22;14501;52.282;10.560;2022-07-11T08:23:59;34.30;64.70
26947;DHT22;14501;52.282;10.560;2022-07-11T08:26:25;34.80;65.60
26947;DHT22;14501;52.282;10.560;2022-07-11T08:28:51;36.50;62.60
26947;DHT22;14501;52.282;10.560;2022-07-11T08:31:17;36.80;60.50
26947;DHT22;14501;52.282;10.560;2022-07-11T08:33:43;36.00;61.40
26947;DHT22;14501;52.282;10.560;2022-07-11T08:36:09;33.80;63.60
26947;DHT22;14501;52.282;10.560;2022-07-11T08:38:36;31.60;68.10
26947;DHT22;14501;52.282;10.560;2022-07-11T08:41:01;30.40;73.40
26947;DHT22;14501;52.282;10.560;2022-07-11T08:43:28;30.70;71.60
26947;DHT22;14501;52.282;10.560;2022-07-11T08:45:55;32.40;71.00
26947;DHT22;14501;52.282;10.560;2022-07-11T08:48:22;33.70;66.70
26947;DHT22;14501;52.282;10.560;2022-07-11T08:50:49;34.20;65.10
26947;DHT22;14501;52.282;10.560;2022-07-11T08:53:15;35.00;64.80
26947;DHT22;14501;52.282;10.560;2022-07-11T08:55:41;36.10;63.10
26947;DHT22;14501;52.282;10.560;2022-07-11T08:58:08;37.50;60.00
26947;DHT22;14501;52.282;10.560;2022-07-11T09:00:34;38.50;58.80
26947;DHT22;14501;52.282;10.560;2022-07-11T09:03:02;39.20;58.00
26947;DHT22;14501;52.282;10.560;2022-07-11T09:05:28;39.80;56.70
26947;DHT22;14501;52.282;10.560;2022-07-11T09:07:54;39.90;55.60
26947;DHT22;14501;52.282;10.560;2022-07-11T09:10:20;39.60;56.50
26947;DHT22;14501;52.282;10.560;2022-07-11T09:13:06;39.70;57.00
26947;DHT22;14501;52.282;10.560;2022-07-11T09:23:58;36.90;59.70
26947;DHT22;14501;52.282;10.560;2022-07-11T09:26:45;34.00;62.10
26947;DHT22;14501;52.282;10.560;2022-07-11T09:29:20;31.60;67.90
26947;DHT22;14501;52.282;10.560;2022-07-11T09:31:46;30.50;71.00
26947;DHT22;14501;52.282;10.560;2022-07-11T09:34:15;30.20;73.70
26947;DHT22;14501;52.282;10.560;2022-07-11T09:36:46;31.40;73.20
26947;DHT22;14501;52.282;10.560;2022-07-11T09:39:19;33.80;66.40
26947;DHT22;14501;52.282;10.560;2022-07-11T09:41:45;35.70;62.90
26947;DHT22;14501;52.282;10.560;2022-07-11T09:46:43;33.30;68.30
26947;DHT22;14501;52.282;10.560;2022-07-11T09:49:10;34.10;68.10
26947;DHT22;14501;52.282;10.560;2022-07-11T09:51:37;34.80;65.30
26947;DHT22;14501;52.282;10.560;2022-07-11T09:54:04;35.00;63.40
26947;DHT22;14501;52.282;10.560;2022-07-11T09:56:45;36.00;64.80
26947;DHT22;14501;52.282;10.560;2022-07-11T09:59:17;36.40;61.30
26947;DHT22;14501;52.282;10.560;2022-07-11T10:01:44;35.20;63.20
26947;DHT22;14501;52.282;10.560;2022-07-11T10:04:10;33.40;65.30
26947;DHT22;14501;52.282;10.560;2022-07-11T10:06:37;32.30;67.60
26947;DHT22;14501;52.282;10.560;2022-07-11T10:09:04;31.40;70.50
26947;DHT22;14501;52.282;10.560;2022-07-11T10:11:32;32.00;71.80
26947;DHT22;14501;52.282;10.560;2022-07-11T10:14:04;33.30;70.20
26947;DHT22;14501;52.282;10.560;2022-07-11T10:22:24;34.40;66.80
26947;DHT22;14501;52.282;10.560;2022-07-11T10:27:59;35.20;66.20
26947;DHT22;14501;52.282;10.560;2022-07-11T10:30:45;34.90;67.30
26947;DHT22;14501;52.282;10.560;2022-07-11T10:33:12;35.30;66.40
26947;DHT22;14501;52.282;10.560;2022-07-11T10:35:46;35.90;66.60
26947;DHT22;14501;52.282;10.560;2022-07-11T10:38:12;35.50;62.30
26947;DHT22;14501;52.282;10.560;2022-07-11T10:40:41;34.50;66.50
26947;DHT22;14501;52.282;10.560;2022-07-11T10:46:05;32.00;68.60
26947;DHT22;14501;52.282;10.560;2022-07-11T10:48:51;30.30;73.20
26947;DHT22;14501;52.282;10.560;2022-07-11T10:54:12;29.30;76.10
26947;DHT22;14501;52.282;10.560;2022-07-11T10:59:15;27.90;79.80
26947;DHT22;14501;52.282;10.560;2022-07-11T11:07:47;26.50;86.80
26947;DHT22;14501;52.282;10.560;2022-07-11T11:15:56;27.90;84.80
26947;DHT22;14501;52.282;10.560;2022-07-11T11:23:34;28.40;81.10
26947;DHT22;14501;52.282;10.560;2022-07-11T11:26:20;28.40;84.30
26947;DHT22;14501;52.282;10.560;2022-07-11T11:29:05;28.40;85.20
26947;DHT22;14501;52.282;10.560;2022-07-11T11:31:32;28.10;82.60
26947;DHT22;14501;52.282;10.560;2022-07-11T11:34:00;27.90;86.00
26947;DHT22;14501;52.282;10.560;2022-07-11T11:36:27;27.90;86.40
26947;DHT22;14501;52.282;10.560;2022-07-11T11:38:56;27.60;82.50
26947;DHT22;14501;52.282;10.560;2022-07-11T11:41:26;27.30;83.30
26947;DHT22;14501;52.282;10.560;2022-07-11T11:43:53;26.60;86.80
26947;DHT22;14501;52.282;10.560;2022-07-11T11:46:30;26.50;86.50
26947;DHT22;14501;52.282;10.560;2022-07-11T11:48:58;26.60;85.50
26947;DHT22;14501;52.282;10.560;2022-07-11T11:51:26;26.90;86.00
26947;DHT22;14501;52.282;10.560;2022-07-11T11:53:54;26.80;86.70
26947;DHT22;14501;52.282;10.560;2022-07-11T11:56:27;26.60;87.80
26947;DHT22;14501;52.282;10.560;2022-07-11T11:59:03;26.80;87.80
26947;DHT22;14501;52.282;10.560;2022-07-11T12:01:35;27.00;89.00
26947;DHT22;14501;52.282;10.560;2022-07-11T12:04:12;27.20;83.30
26947;DHT22;14501;52.282;10.560;2022-07-11T12:06:42;27.40;87.10
26947;DHT22;14501;52.282;10.560;2022-07-11T12:09:21;27.40;86.60
26947;DHT22;14501;52.282;10.560;2022-07-11T12:12:10;27.60;84.90
26947;DHT22;14501;52.282;10.560;2022-07-11T12:14:55;27.60;85.70
26947;DHT22;14501;52.282;10.560;2022-07-11T12:17:28;28.00;82.60
26947;DHT22;14501;52.282;10.560;2022-07-11T12:19:57;28.00;83.50
26947;DHT22;14501;52.282;10.560;2022-07-11T12:22:22;28.20;87.00
26947;DHT22;14501;52.282;10.560;2022-07-11T12:24:50;28.70;85.50
26947;DHT22;14501;52.282;10.560;2022-07-11T12:27:20;29.00;83.00
26947;DHT22;14501;52.282;10.560;2022-07-11T12:29:46;28.80;80.40
26947;DHT22;14501;52.282;10.560;2022-07-11T12:32:18;28.80;81.60
26947;DHT22;14501;52.282;10.560;2022-07-11T12:34:45;28.60;80.30
26947;DHT22;14501;52.282;10.560;2022-07-11T12:37:18;28.30;81.70
26947;DHT22;14501;52.282;10.560;2022-07-11T12:39:52;27.90;85.30
26947;DHT22;14501;52.282;10.560;2022-07-11T12:42:29;27.90;84.50
26947;DHT22;14501;52.282;10.560;2022-07-11T12:45:05;27.80;83.30
26947;DHT22;14501;52.282;10.560;2022-07-11T12:47:36;27.30;82.80
26947;DHT22;14501;52.282;10.560;2022-07-11T12:52:40;27.30;83.30
26947;DHT22;14501;52.282;10.560;2022-07-11T12:55:08;27.20;83.90
26947;DHT22;14501;52.282;10.560;2022-07-11T12:57:39;27.10;85.30
26947;DHT22;14501;52.282;10.560;2022-07-11T13:00:15;26.80;85.00
26947;DHT22;14501;52.282;10.560;2022-07-11T13:02:48;26.70;85.70
26947;DHT22;14501;52.282;10.560;2022-07-11T13:05:15;26.70;88.70
26947;DHT22;14501;52.282;10.560;2022-07-11T13:07:42;27.10;86.40
26947;DHT22;14501;52.282;10.560;2022-07-11T13:10:28;27.10;87.60
26947;DHT22;14501;52.282;10.560;2022-07-11T13:13:26;26.90;85.80
26947;DHT22;14501;52.282;10.560;2022-07-11T13:15:52;26.70;88.30
26947;DHT22;14501;52.282;10.560;2022-07-11T13:18:19;26.10;90.00
26947;DHT22;14501;52.282;10.560;2022-07-11T13:20:45;25.90;89.10
26947;DHT22;14501;52.282;10.560;2022-07-11T13:23:10;25.90;89.50
26947;DHT22;14501;52.282;10.560;2022-07-11T13:25:36;26.10;90.70
26947;DHT22;14501;52.282;10.560;2022-07-11T13:30:28;26.40;89.00
26947;DHT22;14501;52.282;10.560;2022-07-11T13:32:57;26.30;89.40
26947;DHT22;14501;52.282;10.560;2022-07-11T13:35:23;26.00;89.10
26947;DHT22;14501;52.282;10.560;2022-07-11T13:37:49;26.50;90.90
26947;DHT22;14501;52.282;10.560;2022-07-11T13:40:17;26.80;89.90
26947;DHT22;14501;52.282;10.560;2022-07-11T13:42:44;26.80;89.40
26947;DHT22;14501;52.282;10.560;2022-07-11T13:45:18;27.10;86.10
26947;DHT22;14501;52.282;10.560;2022-07-11T13:47:47;27.50;86.90
26947;DHT22;14501;52.282;10.560;2022-07-11T13:50:13;27.50;88.20
26947;DHT22;14501;52.282;10.560;2022-07-11T13:52:39;27.50;87.10
26947;DHT22;14501;52.282;10.560;2022-07-11T13:55:05;27.70;85.60
26947;DHT22;14501;52.282;10.560;2022-07-11T13:57:31;27.10;89.00
26947;DHT22;14501;52.282;10.560;2022-07-11T13:59:57;27.10;89.30
26947;DHT22;14501;52.282;10.560;2022-07-11T14:02:23;27.30;87.10
26947;DHT22;14501;52.282;10.560;2022-07-11T14:04:50;27.00;88.50
26947;DHT22;14501;52.282;10.560;2022-07-11T14:07:16;26.70;87.60
26947;DHT22;14501;52.282;10.560;2022-07-11T14:09:42;26.50;90.10
26947;DHT22;14501;52.282;10.560;2022-07-11T14:12:08;26.60;91.10
26947;DHT22;14501;52.282;10.560;2022-07-11T14:14:35;26.70;90.20
26947;DHT22;14501;52.282;10.560;2022-07-11T14:17:01;26.50;90.80
26947;DHT22;14501;52.282;10.560;2022-07-11T14:19:27;25.80;91.80
26947;DHT22;14501;52.282;10.560;2022-07-11T14:21:53;25.60;91.90
26947;DHT22;14501;52.282;10.560;2022-07-11T14:24:19;25.20;92.40
26947;DHT22;14501;52.282;10.560;2022-07-11T14:26:45;25.20;92.90
26947;DHT22;14501;52.282;10.560;2022-07-11T14:29:11;24.70;93.50
26947;DHT22;14501;52.282;10.560;2022-07-11T14:34:04;24.30;94.80
26947;DHT22;14501;52.282;10.560;2022-07-11T14:36:30;23.90;95.40
26947;DHT22;14501;52.282;10.560;2022-07-11T14:38:56;23.40;96.60
26947;DHT22;14501;52.282;10.560;2022-07-11T14:41:22;23.40;97.40
26947;DHT22;14501;52.282;10.560;2022-07-11T14:43:48;23.40;97.60
26947;DHT22;14501;52.282;10.560;2022-07-11T14:48:42;23.40;98.50
26947;DHT22;14501;52.282;10.560;2022-07-11T14:51:08;23.40;98.70
26947;DHT22;14501;52.282;10.560;2022-07-11T14:53:34;23.40;99.90
26947;DHT22;14501;52.282;10.560;2022-07-11T14:56:01;23.90;98.20
26947;DHT22;14501;52.282;10.560;2022-07-11T14:58:27;23.90;98.30
26947;DHT22;14501;52.282;10.560;2022-07-11T15:00:52;24.00;98.10
26947;DHT22;14501;52.282;10.560;2022-07-11T15:03:18;23.90;97.90
26947;DHT22;14501;52.282;10.560;2022-07-11T15:06:03;24.20;99.10
26947;DHT22;14501;52.282;10.560;2022-07-11T15:08:29;23.90;97.80
26947;DHT22;14501;52.282;10.560;2022-07-11T15:11:13;23.90;98.50
26947;DHT22;14501;52.282;10.560;2022-07-11T15:13:57;23.90;97.70
26947;DHT22;14501;52.282;10.560;2022-07-11T15:16:24;23.90;97.90
26947;DHT22;14501;52.282;10.560;2022-07-11T15:18:52;23.80;97.50
26947;DHT22;14501;52.282;10.560;2022-07-11T15:21:18;23.90;98.90
26947;DHT22;14501;52.282;10.560;2022-07-11T15:23:43;23.70;99.10
26947;DHT22;14501;52.282;10.560;2022-07-11T15:26:09;23.50;99.30
26947;DHT22;14501;52.282;10.560;2022-07-11T15:28:35;23.70;99.80
26947;DHT22;14501;52.282;10.560;2022-07-11T15:31:00;23.60;99.30
26947;DHT22;14501;52.282;10.560;2022-07-11T15:33:26;23.70;99.40
26947;DHT22;14501;52.282;10.560;2022-07-11T15:35:52;23.80;99.60
26947;DHT22;14501;52.282;10.560;2022-07-11T15:38:21;23.50;99.60
26947;DHT22;14501;52.282;10.560;2022-07-11T15:40:47;23.60;99.90
26947;DHT22;14501;52.282;10.560;2022-07-11T15:43:14;23.70;99.90
26947;DHT22;14501;52.282;10.560;2022-07-11T15:45:40;23.70;99.90
26947;DHT22;14501;52.282;10.560;2022-07-11T15:48:06;23.90;99.90
26947;DHT22;14501;52.282;10.560;2022-07-11T15:50:39;23.80;99.90
26947;DHT22;14501;52.282;10.560;2022-07-11T15:53:05;23.80;99.90
26947;DHT22;14501;52.282;10.560;2022-07-11T15:55:31;23.60;99.90
26947;DHT22;14501;52.282;10.560;2022-07-11T15:57:56;23.60;99.90
26947;DHT22;14501;52.282;10.560;2022-07-11T16:00:22;23.50;99.90
26947;DHT22;14501;52.282;10.560;2022-07-11T16:02:48;23.50;99.90
26947;DHT22;14501;52.282;10.560;2022-07-11T16:05:14;23.40;99.90
26947;DHT22;14501;52.282;10.560;2022-07-11T16:07:40;23.20;99.90
26947;DHT22;14501;52.282;10.560;2022-07-11T16:10:07;23.20;99.90
26947;DHT22;14501;52.282;10.560;2022-07-11T16:12:33;23.10;99.90
26947;DHT22;14501;52.282;10.560;2022-07-11T16:15:00;23.10;99.90
26947;DHT22;14501;52.282;10.560;2022-07-11T16:17:26;22.60;99.90